createdAt,value
2019-05-02T00:00:03.323Z,47.47
2019-05-02T00:01:03.320Z,48.46
2019-05-02T00:02:03.327Z,48.49
2019-05-02T00:03:04.437Z,48.62
2019-05-02T00:04:04.288Z,48.53
2019-05-02T00:05:03.333Z,46.77
2019-05-02T00:06:07.451Z,46.90
2019-05-02T00:07:04.316Z,46.86
2019-05-02T00:08:03.296Z,49.24
2019-05-02T00:09:03.915Z,48.65
2019-05-02T00:10:05.310Z,47.97
2019-05-02T00:11:03.291Z,49.81
2019-05-02T00:12:03.309Z,50.43
2019-05-02T00:13:03.278Z,50.98
2019-05-02T00:14:03.282Z,51.67
2019-05-02T00:15:03.581Z,47.74
2019-05-02T00:16:04.247Z,47.62
2019-05-02T00:17:03.263Z,49.84
2019-05-02T00:18:03.247Z,50.31
2019-05-02T00:19:03.227Z,48.12
2019-05-02T00:20:03.221Z,49.91
2019-05-02T00:21:03.301Z,48.58
2019-05-02T00:22:04.210Z,46.70
2019-05-02T00:23:03.201Z,48.76
2019-05-02T00:24:04.196Z,48.09
2019-05-02T00:25:03.179Z,48.35
2019-05-02T00:26:03.172Z,48.14
2019-05-02T00:27:03.276Z,47.98
2019-05-02T00:28:07.881Z,48.54
2019-05-02T00:29:04.167Z,47.51
2019-05-02T00:30:03.172Z,46.42
2019-05-02T00:31:07.379Z,45.85
2019-05-02T00:32:04.156Z,45.59
2019-05-02T00:33:03.140Z,47.27
2019-05-02T00:34:03.135Z,47.23
2019-05-02T00:35:03.126Z,46.15
2019-05-02T00:36:03.114Z,44.97
2019-05-02T00:37:03.125Z,47.00
2019-05-02T00:38:03.845Z,49.17
2019-05-02T00:39:03.102Z,50.33
2019-05-02T00:40:03.082Z,49.42
2019-05-02T00:41:03.687Z,49.74
2019-05-02T00:42:12.502Z,46.53
2019-05-02T00:43:05.082Z,46.27
2019-05-02T00:44:06.061Z,48.05
2019-05-02T00:45:05.090Z,46.59
2019-05-02T00:46:03.079Z,46.46
2019-05-02T00:47:06.184Z,48.53
2019-05-02T00:48:05.061Z,47.92
2019-05-02T00:49:03.067Z,49.53
2019-05-02T00:50:06.266Z,49.39
2019-05-02T00:51:05.048Z,48.53
2019-05-02T00:52:03.208Z,46.94
2019-05-02T00:53:07.129Z,50.35
2019-05-02T00:54:05.022Z,51.71
2019-05-02T00:55:03.015Z,50.52
2019-05-02T00:56:05.164Z,51.62
2019-05-02T00:57:05.010Z,49.16
2019-05-02T00:58:02.989Z,49.47
2019-05-02T00:59:07.647Z,49.42
2019-05-02T01:00:03.985Z,51.03
2019-05-02T01:01:02.967Z,49.44
2019-05-02T01:02:05.833Z,49.46
2019-05-02T01:03:03.959Z,51.55
2019-05-02T01:04:02.952Z,49.48
2019-05-02T01:05:03.444Z,49.95
2019-05-02T01:06:03.934Z,52.69
2019-05-02T01:07:02.936Z,54.12
2019-05-02T01:08:03.093Z,50.70
2019-05-02T01:09:05.804Z,50.96
2019-05-02T01:10:04.901Z,51.86
2019-05-02T01:11:02.892Z,51.00
2019-05-02T01:12:07.761Z,51.10
2019-05-02T01:13:04.891Z,52.48
2019-05-02T01:14:02.872Z,55.14
2019-05-02T01:15:03.214Z,54.60
2019-05-02T01:16:04.872Z,50.05
2019-05-02T01:17:34.914Z,49.66
2019-05-02T01:18:06.063Z,53.13
2019-05-02T01:19:03.864Z,51.63
2019-05-02T01:20:02.937Z,50.17
2019-05-02T01:21:04.153Z,48.13
2019-05-02T01:22:03.856Z,48.16
2019-05-02T01:23:02.890Z,47.48
2019-05-02T01:24:04.812Z,48.23
2019-05-02T01:25:03.464Z,49.62
2019-05-02T01:26:02.834Z,47.77
2019-05-02T01:27:04.589Z,49.49
2019-05-02T01:28:03.818Z,49.10
2019-05-02T01:29:02.797Z,47.48
2019-05-02T01:30:06.011Z,49.06
2019-05-02T01:31:03.831Z,50.04
2019-05-02T01:32:02.866Z,52.40
2019-05-02T01:33:06.610Z,50.41
2019-05-02T01:34:03.818Z,56.95
2019-05-02T01:35:02.809Z,52.88
2019-05-02T01:36:06.455Z,49.46
2019-05-02T01:37:05.498Z,50.60
2019-05-02T01:38:02.864Z,49.96
2019-05-02T01:39:02.890Z,51.22
2019-05-02T01:40:03.796Z,50.58
2019-05-02T01:41:02.750Z,51.86
2019-05-02T01:42:04.131Z,50.77
2019-05-02T01:43:03.731Z,48.21
2019-05-02T01:44:02.740Z,49.16
2019-05-02T01:45:06.654Z,51.22
2019-05-02T01:46:03.677Z,48.73
2019-05-02T01:47:02.681Z,50.48
2019-05-02T01:48:04.989Z,50.00
2019-05-02T01:49:03.783Z,48.81
2019-05-02T01:50:02.709Z,50.21
2019-05-02T01:51:04.262Z,47.37
2019-05-02T01:52:04.676Z,48.00
2019-05-02T01:53:02.679Z,51.27
2019-05-02T01:54:05.097Z,49.90
2019-05-02T01:55:04.650Z,48.75
2019-05-02T01:56:02.678Z,48.48
2019-05-02T01:57:03.898Z,48.64
2019-05-02T01:58:04.671Z,48.59
2019-05-02T01:59:02.675Z,49.17
2019-05-02T02:00:04.166Z,52.71
2019-05-02T02:01:04.646Z,50.64
2019-05-02T02:02:02.651Z,49.52
2019-05-02T02:03:04.148Z,47.92
2019-05-02T02:04:04.640Z,48.51
2019-05-02T02:05:02.580Z,47.23
2019-05-02T02:06:07.423Z,47.30
2019-05-02T02:07:04.582Z,47.50
2019-05-02T02:08:02.671Z,47.90
2019-05-02T02:09:03.398Z,47.05
2019-05-02T02:10:04.578Z,46.34
2019-05-02T02:11:02.550Z,46.88
2019-05-02T02:12:04.919Z,45.31
2019-05-02T02:13:05.273Z,45.13
2019-05-02T02:14:07.392Z,44.78
2019-05-02T02:15:03.643Z,45.53
2019-05-02T02:16:04.325Z,46.49
2019-05-02T02:17:03.511Z,47.70
2019-05-02T02:18:02.510Z,46.29
2019-05-02T02:19:03.980Z,45.72
2019-05-02T02:20:03.483Z,45.74
2019-05-02T02:21:02.481Z,47.39
2019-05-02T02:22:04.284Z,49.19
2019-05-02T02:23:03.521Z,47.22
2019-05-02T02:24:02.535Z,47.19
2019-05-02T02:25:02.922Z,47.14
2019-05-02T02:26:06.783Z,48.06
2019-05-02T02:27:03.493Z,48.17
2019-05-02T02:28:03.445Z,51.51
2019-05-02T02:29:03.179Z,48.10
2019-05-02T02:30:03.483Z,47.53
2019-05-02T02:31:04.791Z,49.82
2019-05-02T02:32:03.476Z,48.21
2019-05-02T02:33:07.587Z,48.06
2019-05-02T02:34:04.463Z,48.79
2019-05-02T02:35:03.702Z,49.37
2019-05-02T02:36:04.441Z,47.99
2019-05-02T02:37:05.689Z,48.99
2019-05-02T02:38:04.412Z,49.36
2019-05-02T02:39:06.873Z,49.48
2019-05-02T02:40:04.381Z,49.99
2019-05-02T02:41:06.502Z,50.85
2019-05-02T02:42:04.438Z,49.57
2019-05-02T02:43:12.776Z,50.60
2019-05-02T02:44:04.411Z,49.69
2019-05-02T02:45:02.954Z,52.19
2019-05-02T02:46:02.433Z,50.76
2019-05-02T02:47:02.469Z,48.00
2019-05-02T02:48:02.683Z,48.86
2019-05-02T02:49:03.434Z,47.76
2019-05-02T02:50:05.068Z,50.20
2019-05-02T02:51:02.404Z,50.10
2019-05-02T02:52:04.956Z,48.20
2019-05-02T02:53:04.452Z,50.20
2019-05-02T02:54:03.945Z,50.72
2019-05-02T02:55:03.422Z,49.76
2019-05-02T02:56:03.958Z,49.40
2019-05-02T02:57:03.983Z,51.04
2019-05-02T02:58:04.915Z,52.65
2019-05-02T02:59:03.354Z,51.45
2019-05-02T03:00:07.899Z,51.80
2019-05-02T03:01:04.441Z,51.73
2019-05-02T03:02:10.195Z,51.05
2019-05-02T03:03:04.348Z,50.21
2019-05-02T03:04:09.695Z,52.07
2019-05-02T03:05:03.331Z,53.11
2019-05-02T03:06:05.611Z,52.43
2019-05-02T03:07:04.319Z,53.14
2019-05-02T03:08:05.332Z,51.79
2019-05-02T03:09:03.303Z,53.45
2019-05-02T03:10:06.252Z,53.00
2019-05-02T03:11:04.278Z,52.10
2019-05-02T03:12:04.468Z,56.03
2019-05-02T03:13:02.265Z,53.00
2019-05-02T03:14:07.446Z,54.45
2019-05-02T03:15:04.258Z,52.13
2019-05-02T03:16:07.055Z,50.66
2019-05-02T03:19:54.469Z,53.90
2019-05-02T03:20:53.291Z,54.41
2019-05-02T03:21:54.359Z,56.53
2019-05-02T03:22:54.247Z,53.32
2019-05-02T03:24:02.188Z,53.26
2019-05-02T03:24:55.685Z,52.88
2019-05-02T03:25:53.171Z,52.35
2019-05-02T03:26:55.177Z,51.47
2019-05-02T03:27:53.281Z,50.23
2019-05-02T03:28:58.215Z,50.31
2019-05-02T03:29:54.190Z,49.94
2019-05-02T03:30:52.234Z,50.18
2019-05-02T03:32:11.424Z,50.76
2019-05-02T03:33:06.035Z,50.32
2019-05-02T03:33:59.774Z,50.78
2019-05-02T03:34:54.807Z,50.78
2019-05-02T03:35:53.225Z,49.13
2019-05-02T03:36:52.187Z,52.39
2019-05-02T03:37:53.141Z,53.62
2019-05-02T03:38:53.170Z,51.91
2019-05-02T03:39:57.465Z,48.91
2019-05-02T03:40:53.170Z,47.99
2019-05-02T03:41:55.485Z,47.42
2019-05-02T03:42:54.110Z,46.95
2019-05-02T03:44:09.092Z,47.37
2019-05-02T03:44:56.164Z,46.76
2019-05-02T03:45:54.112Z,46.70
2019-05-02T03:46:54.269Z,46.72
2019-05-02T03:47:54.115Z,46.31
2019-05-02T03:48:59.010Z,48.34
2019-05-02T03:49:53.068Z,47.29
2019-05-02T03:50:53.054Z,48.50
2019-05-02T03:51:56.164Z,47.33
2019-05-02T03:52:54.025Z,48.35
2019-05-02T03:53:52.085Z,47.18
2019-05-02T03:54:52.759Z,48.67
2019-05-02T03:55:53.043Z,48.49
2019-05-02T03:56:53.481Z,47.77
2019-05-02T03:57:53.043Z,47.32
2019-05-02T03:58:56.477Z,46.58
2019-05-02T03:59:54.029Z,46.70
2019-05-02T04:01:00.405Z,46.51
2019-05-02T04:01:54.079Z,45.29
2019-05-02T04:02:59.507Z,46.54
2019-05-02T04:03:53.967Z,45.80
2019-05-02T04:04:54.297Z,45.17
2019-05-02T04:05:53.982Z,44.45
2019-05-02T04:06:55.045Z,44.37
2019-05-02T04:07:54.089Z,44.43
2019-05-02T04:08:58.837Z,44.36
2019-05-02T04:09:54.051Z,43.61
2019-05-02T04:10:52.766Z,44.15
2019-05-02T04:11:53.989Z,43.99
2019-05-02T04:12:53.036Z,43.63
2019-05-02T04:13:53.936Z,43.45
2019-05-02T04:14:55.565Z,45.42
2019-05-02T04:15:52.951Z,50.05
2019-05-02T04:16:55.105Z,45.63
2019-05-02T04:17:53.986Z,45.85
2019-05-02T04:18:55.743Z,44.93
2019-05-02T04:19:53.913Z,44.61
2019-05-02T04:20:52.127Z,44.41
2019-05-02T04:21:54.975Z,43.73
2019-05-02T04:22:52.888Z,43.43
2019-05-02T04:23:51.868Z,45.40
2019-05-02T04:24:56.944Z,45.72
2019-05-02T04:25:53.873Z,47.96
2019-05-02T04:26:56.022Z,48.33
2019-05-02T04:27:52.840Z,48.75
2019-05-02T04:28:52.268Z,49.04
2019-05-02T04:29:51.851Z,47.03
2019-05-02T04:30:53.921Z,48.76
2019-05-02T04:31:52.684Z,46.54
2019-05-02T04:32:55.864Z,48.49
2019-05-02T04:33:52.787Z,45.79
2019-05-02T04:34:55.257Z,43.24
2019-05-02T04:35:53.824Z,42.76
2019-05-02T04:37:00.261Z,46.97
2019-05-02T04:37:53.783Z,44.68
2019-05-02T04:38:52.573Z,43.49
2019-05-02T04:39:53.713Z,42.97
2019-05-02T04:40:53.756Z,42.75
2019-05-02T04:41:52.764Z,42.69
2019-05-02T04:43:02.012Z,43.24
2019-05-02T04:43:57.717Z,43.93
2019-05-02T04:45:14.189Z,43.17
2019-05-02T04:45:59.171Z,42.75
2019-05-02T04:46:59.733Z,42.94
2019-05-02T04:47:58.558Z,43.09
2019-05-02T04:48:53.725Z,43.70
2019-05-02T04:49:52.723Z,42.66
2019-05-02T04:50:58.326Z,42.48
2019-05-02T04:52:04.526Z,43.43
2019-05-02T04:52:54.203Z,42.88
2019-05-02T04:53:52.704Z,44.53
2019-05-02T04:54:51.710Z,42.56
2019-05-02T04:56:01.749Z,41.96
2019-05-02T04:56:55.458Z,41.94
2019-05-02T04:57:52.691Z,41.79
2019-05-02T04:58:51.653Z,45.12
2019-05-02T05:00:02.427Z,42.85
2019-05-02T05:00:58.030Z,46.72
2019-05-02T05:01:57.513Z,45.30
2019-05-02T05:02:53.597Z,43.95
2019-05-02T05:03:58.147Z,44.04
2019-05-02T05:04:53.562Z,43.84
2019-05-02T05:05:51.581Z,42.23
2019-05-02T05:06:55.886Z,42.94
2019-05-02T05:07:53.559Z,43.08
2019-05-02T05:08:51.566Z,47.47
2019-05-02T05:09:58.280Z,47.97
2019-05-02T05:10:53.569Z,47.46
2019-05-02T05:11:53.906Z,47.47
2019-05-02T05:12:53.550Z,49.70
2019-05-02T05:13:52.389Z,47.44
2019-05-02T05:14:52.539Z,46.48
2019-05-02T05:15:52.084Z,44.92
2019-05-02T05:16:55.685Z,43.98
2019-05-02T05:17:53.539Z,45.81
2019-05-02T05:18:53.210Z,44.40
2019-05-02T05:19:53.353Z,42.59
2019-05-02T05:20:53.017Z,42.77
2019-05-02T05:21:56.735Z,42.75
2019-05-02T05:22:52.499Z,45.05
2019-05-02T05:23:51.659Z,46.20
2019-05-02T05:24:52.545Z,44.71
2019-05-02T05:25:55.669Z,44.79
2019-05-02T05:26:52.452Z,46.24
2019-05-02T05:27:52.526Z,43.43
2019-05-02T05:28:53.464Z,44.52
2019-05-02T05:29:53.728Z,44.91
2019-05-02T05:30:53.433Z,44.87
2019-05-02T05:31:55.182Z,44.79
2019-05-02T05:32:53.458Z,43.76
2019-05-02T05:33:51.415Z,46.02
2019-05-02T05:34:51.440Z,42.36
2019-05-02T05:35:52.730Z,44.79
2019-05-02T05:36:52.423Z,42.55
2019-05-02T05:37:53.087Z,42.20
2019-05-02T05:38:52.429Z,42.55
2019-05-02T05:39:52.676Z,42.48
2019-05-02T05:40:52.338Z,43.44
2019-05-02T05:41:52.465Z,43.02
2019-05-02T05:42:52.340Z,43.07
2019-05-02T05:43:53.608Z,43.25
2019-05-02T05:44:52.295Z,43.17
2019-05-02T05:45:56.377Z,43.85
2019-05-02T05:46:53.367Z,44.29
2019-05-02T05:47:52.409Z,42.81
2019-05-02T05:48:53.878Z,42.12
2019-05-02T05:49:52.270Z,42.37
2019-05-02T05:50:53.277Z,42.23
2019-05-02T05:51:54.391Z,43.10
2019-05-02T05:52:53.282Z,42.35
2019-05-02T05:53:52.333Z,43.25
2019-05-02T05:54:53.222Z,45.85
2019-05-02T05:55:53.643Z,44.65
2019-05-02T05:56:53.274Z,44.87
2019-05-02T05:57:59.502Z,45.80
2019-05-02T05:58:53.278Z,44.13
2019-05-02T05:59:52.238Z,44.33
2019-05-02T06:00:55.358Z,43.70
2019-05-02T06:01:53.214Z,42.94
2019-05-02T06:02:56.248Z,44.31
2019-05-02T06:03:53.267Z,43.16
2019-05-02T06:04:55.310Z,43.22
2019-05-02T06:05:52.231Z,43.76
2019-05-02T06:06:54.034Z,43.51
2019-05-02T06:07:53.203Z,44.37
2019-05-02T06:08:54.066Z,45.45
2019-05-02T06:09:52.172Z,45.19
2019-05-02T06:10:51.183Z,43.44
2019-05-02T06:11:55.475Z,43.97
2019-05-02T06:12:51.291Z,42.60
2019-05-02T06:13:51.156Z,43.08
2019-05-02T06:14:51.187Z,42.77
2019-05-02T06:16:01.571Z,43.69
2019-05-02T06:16:53.690Z,43.31
2019-05-02T06:17:51.138Z,43.24
2019-05-02T06:18:51.111Z,42.38
2019-05-02T06:19:53.566Z,43.55
2019-05-02T06:20:52.090Z,43.66
2019-05-02T06:21:51.094Z,43.55
2019-05-02T06:22:55.053Z,43.23
2019-05-02T06:23:52.114Z,43.99
2019-05-02T06:24:52.106Z,42.42
2019-05-02T06:25:51.125Z,43.72
2019-05-02T06:26:51.803Z,44.14
2019-05-02T06:27:52.016Z,45.05
2019-05-02T06:28:51.011Z,43.36
2019-05-02T06:29:55.633Z,43.77
2019-05-02T06:30:53.004Z,42.37
2019-05-02T06:31:51.845Z,44.00
2019-05-02T06:32:54.992Z,43.26
2019-05-02T06:33:53.025Z,43.02
2019-05-02T06:34:50.993Z,42.57
2019-05-02T06:35:51.838Z,44.09
2019-05-02T06:36:53.122Z,46.03
2019-05-02T06:37:52.002Z,42.94
2019-05-02T06:38:52.342Z,44.04
2019-05-02T06:39:53.689Z,43.75
2019-05-02T06:40:51.016Z,43.24
2019-05-02T06:41:52.119Z,43.45
2019-05-02T06:42:52.983Z,43.21
2019-05-02T06:43:51.096Z,45.96
2019-05-02T06:44:54.962Z,44.73
2019-05-02T06:45:52.908Z,45.10
2019-05-02T06:46:51.855Z,45.04
2019-05-02T06:47:50.941Z,46.56
2019-05-02T06:48:52.250Z,45.26
2019-05-02T06:49:56.155Z,46.12
2019-05-02T06:50:52.696Z,44.65
2019-05-02T06:51:56.329Z,42.56
2019-05-02T06:52:52.964Z,43.31
2019-05-02T06:53:50.922Z,43.21
2019-05-02T06:54:54.070Z,43.05
2019-05-02T06:55:54.194Z,43.65
2019-05-02T06:56:51.108Z,42.97
2019-05-02T06:57:51.792Z,43.11
2019-05-02T06:58:51.961Z,44.57
2019-05-02T06:59:54.647Z,44.39
2019-05-02T07:00:57.979Z,46.46
2019-05-02T07:01:57.560Z,44.12
2019-05-02T07:02:52.891Z,43.75
2019-05-02T07:03:51.694Z,42.96
2019-05-02T07:04:54.711Z,43.65
2019-05-02T07:05:53.194Z,43.75
2019-05-02T07:06:58.902Z,44.11
2019-05-02T07:07:53.005Z,43.83
2019-05-02T07:08:51.004Z,42.20
2019-05-02T07:09:50.943Z,43.32
2019-05-02T07:10:50.819Z,44.37
2019-05-02T07:11:57.288Z,45.10
2019-05-02T07:13:09.223Z,44.69
2019-05-02T07:13:51.799Z,44.77
2019-05-02T07:14:50.798Z,43.70
2019-05-02T07:15:50.795Z,43.63
2019-05-02T07:16:54.440Z,43.87
2019-05-02T07:18:17.701Z,43.59
2019-05-02T07:18:50.678Z,44.79
2019-05-02T07:19:50.684Z,44.44
2019-05-02T07:20:50.670Z,44.21
2019-05-02T07:21:53.063Z,46.47
2019-05-02T07:22:52.663Z,44.97
2019-05-02T07:23:53.525Z,44.55
2019-05-02T07:24:51.664Z,43.90
2019-05-02T07:25:50.641Z,42.85
2019-05-02T07:26:52.086Z,44.03
2019-05-02T07:27:52.639Z,45.19
2019-05-02T07:28:50.634Z,44.00
2019-05-02T07:29:52.227Z,45.26
2019-05-02T07:30:54.644Z,46.60
2019-05-02T07:31:53.449Z,46.59
2019-05-02T07:32:50.619Z,44.77
2019-05-02T07:33:50.623Z,44.88
2019-05-02T07:34:50.614Z,44.48
2019-05-02T07:35:50.623Z,43.71
2019-05-02T07:36:50.609Z,43.82
2019-05-02T07:37:50.610Z,43.89
2019-05-02T07:38:50.592Z,43.95
2019-05-02T07:39:50.607Z,44.44
2019-05-02T07:40:52.951Z,47.41
2019-05-02T07:41:51.590Z,47.86
2019-05-02T07:42:50.588Z,43.75
2019-05-02T07:43:52.067Z,42.72
2019-05-02T07:44:52.576Z,44.08
2019-05-02T07:45:50.575Z,43.40
2019-05-02T07:46:52.074Z,45.71
2019-05-02T07:47:51.548Z,44.59
2019-05-02T07:48:54.653Z,43.48
2019-05-02T07:49:51.535Z,43.97
2019-05-02T07:50:50.923Z,43.33
2019-05-02T07:51:52.394Z,45.25
2019-05-02T07:52:52.535Z,46.85
2019-05-02T07:53:50.527Z,44.66
2019-05-02T07:54:50.526Z,46.06
2019-05-02T07:55:50.519Z,44.08
2019-05-02T07:56:53.478Z,43.28
2019-05-02T07:57:51.494Z,43.11
2019-05-02T07:58:50.483Z,47.07
2019-05-02T07:59:55.061Z,43.83
2019-05-02T08:00:51.510Z,46.11
2019-05-02T08:01:50.955Z,46.58
2019-05-02T08:02:50.490Z,44.47
2019-05-02T08:03:50.483Z,44.39
2019-05-02T08:04:50.479Z,44.62
2019-05-02T08:05:54.559Z,45.74
2019-05-02T08:06:51.488Z,44.43
2019-05-02T08:07:53.407Z,43.72
2019-05-02T08:08:51.461Z,43.39
2019-05-02T08:09:50.474Z,47.41
2019-05-02T08:10:53.851Z,45.13
2019-05-02T08:11:52.483Z,43.51
2019-05-02T08:12:50.429Z,44.10
2019-05-02T08:13:55.512Z,43.33
2019-05-02T08:14:51.419Z,43.61
2019-05-02T08:15:52.278Z,42.98
2019-05-02T08:17:04.731Z,43.60
2019-05-02T08:17:53.848Z,45.63
2019-05-02T08:18:51.388Z,44.29
2019-05-02T08:19:50.381Z,42.91
2019-05-02T08:20:51.048Z,43.87
2019-05-02T08:21:52.379Z,45.61
2019-05-02T08:22:50.645Z,44.95
2019-05-02T08:23:51.389Z,44.79
2019-05-02T08:24:51.254Z,43.42
2019-05-02T08:25:50.378Z,43.30
2019-05-02T08:26:53.356Z,43.40
2019-05-02T08:27:52.359Z,43.88
2019-05-02T08:28:51.881Z,43.54
2019-05-02T08:29:51.341Z,43.91
2019-05-02T08:30:50.336Z,43.85
2019-05-02T08:31:50.347Z,44.56
2019-05-02T08:32:50.317Z,44.38
2019-05-02T08:33:50.311Z,43.47
2019-05-02T08:34:52.056Z,43.03
2019-05-02T08:35:51.307Z,42.90
2019-05-02T08:36:50.304Z,43.48
2019-05-02T08:37:50.283Z,42.17
2019-05-02T08:38:53.679Z,42.23
2019-05-02T08:39:51.259Z,43.93
2019-05-02T08:40:51.259Z,43.12
2019-05-02T08:41:51.204Z,43.12
2019-05-02T08:42:52.274Z,44.79
2019-05-02T08:43:50.256Z,44.03
2019-05-02T08:44:51.580Z,45.09
2019-05-02T08:45:52.236Z,44.77
2019-05-02T08:46:51.342Z,43.37
2019-05-02T08:47:51.235Z,43.23
2019-05-02T08:48:50.831Z,43.56
2019-05-02T08:49:54.900Z,43.15
2019-05-02T08:50:52.202Z,42.67
2019-05-02T08:51:50.198Z,42.96
2019-05-02T08:52:50.204Z,44.21
2019-05-02T08:53:52.130Z,43.28
2019-05-02T08:54:52.181Z,43.53
2019-05-02T08:55:50.197Z,43.67
2019-05-02T08:56:53.473Z,43.03
2019-05-02T08:57:52.186Z,44.15
2019-05-02T08:58:51.159Z,43.69
2019-05-02T08:59:50.155Z,45.37
2019-05-02T09:00:50.147Z,44.46
2019-05-02T09:01:51.432Z,45.75
2019-05-02T09:02:50.155Z,44.83
2019-05-02T09:03:55.520Z,46.46
2019-05-02T09:04:58.670Z,44.97
2019-05-02T09:06:04.970Z,48.84
2019-05-02T09:06:53.202Z,44.60
2019-05-02T09:07:52.125Z,44.56
2019-05-02T09:08:51.383Z,44.44
2019-05-02T09:09:51.086Z,46.38
2019-05-02T09:10:50.075Z,45.02
2019-05-02T09:12:04.934Z,45.06
2019-05-02T09:12:52.198Z,44.86
2019-05-02T09:13:52.636Z,44.83
2019-05-02T09:14:51.966Z,45.41
2019-05-02T09:15:53.582Z,47.24
2019-05-02T09:16:52.382Z,46.61
2019-05-02T09:17:56.291Z,45.27
2019-05-02T09:18:54.186Z,45.47
2019-05-02T09:20:00.364Z,46.89
2019-05-02T09:20:56.364Z,48.31
2019-05-02T09:21:52.552Z,45.03
2019-05-02T09:22:52.134Z,45.59
2019-05-02T09:23:51.989Z,47.38
2019-05-02T09:24:52.035Z,47.53
2019-05-02T09:25:51.953Z,47.14
2019-05-02T09:26:51.918Z,45.73
2019-05-02T09:27:52.646Z,46.15
2019-05-02T09:28:51.705Z,46.13
2019-05-02T09:29:51.841Z,45.95
2019-05-02T09:30:52.300Z,45.80
2019-05-02T09:31:49.951Z,45.08
2019-05-02T09:32:52.214Z,45.01
2019-05-02T09:33:51.948Z,46.06
2019-05-02T09:34:51.830Z,46.18
2019-05-02T09:35:51.583Z,47.07
2019-05-02T09:36:49.945Z,46.32
2019-05-02T09:37:49.932Z,45.66
2019-05-02T09:38:55.985Z,46.70
2019-05-02T09:39:52.498Z,44.58
2019-05-02T09:40:54.569Z,45.16
2019-05-02T09:41:52.742Z,43.73
2019-05-02T09:42:53.456Z,44.40
2019-05-02T09:43:52.374Z,44.78
2019-05-02T09:44:55.706Z,47.65
2019-05-02T09:45:52.155Z,47.89
2019-05-02T09:46:53.065Z,47.64
2019-05-02T09:47:57.313Z,46.22
2019-05-02T09:48:52.048Z,46.69
2019-05-02T09:49:53.057Z,45.69
2019-05-02T09:50:49.860Z,46.22
2019-05-02T09:51:50.291Z,47.41
2019-05-02T09:52:52.386Z,46.91
2019-05-02T09:53:52.211Z,46.61
2019-05-02T09:54:51.793Z,46.49
2019-05-02T09:55:55.036Z,46.27
2019-05-02T09:56:52.463Z,46.57
2019-05-02T09:57:51.766Z,46.84
2019-05-02T09:58:55.058Z,46.95
2019-05-02T09:59:55.721Z,46.96
2019-05-02T10:00:52.528Z,49.31
2019-05-02T10:01:49.871Z,47.44
2019-05-02T10:02:49.797Z,46.30
2019-05-02T10:03:51.705Z,47.22
2019-05-02T10:04:49.798Z,46.32
2019-05-02T10:05:49.778Z,46.91
2019-05-02T10:06:52.280Z,46.80
2019-05-02T10:07:49.767Z,46.36
2019-05-02T10:08:51.826Z,46.88
2019-05-02T10:09:51.784Z,48.15
2019-05-02T10:10:49.761Z,47.22
2019-05-02T10:11:49.769Z,46.10
2019-05-02T10:12:49.736Z,48.20
2019-05-02T10:13:51.735Z,46.94
2019-05-02T10:14:49.717Z,48.19
2019-05-02T10:15:49.723Z,48.01
2019-05-02T10:16:49.740Z,48.29
2019-05-02T10:17:51.782Z,49.16
2019-05-02T10:18:49.708Z,49.64
2019-05-02T10:19:55.029Z,49.06
2019-05-02T10:20:52.453Z,47.69
2019-05-02T10:21:54.323Z,47.89
2019-05-02T10:22:53.022Z,47.41
2019-05-02T10:23:51.725Z,48.61
2019-05-02T10:24:52.053Z,47.73
2019-05-02T10:25:49.676Z,47.98
2019-05-02T10:26:49.652Z,48.00
2019-05-02T10:27:49.653Z,47.44
2019-05-02T10:28:52.784Z,47.67
2019-05-02T10:29:49.640Z,49.15
2019-05-02T10:30:52.594Z,48.59
2019-05-02T10:31:52.627Z,46.62
2019-05-02T10:32:52.905Z,48.55
2019-05-02T10:33:52.936Z,46.62
2019-05-02T10:34:54.319Z,47.51
2019-05-02T10:35:52.436Z,48.13
2019-05-02T10:36:54.211Z,46.24
2019-05-02T10:37:52.100Z,45.44
2019-05-02T10:38:54.800Z,46.92
2019-05-02T10:39:52.208Z,48.50
2019-05-02T10:40:54.563Z,48.26
2019-05-02T10:41:52.649Z,47.57
2019-05-02T10:42:49.568Z,48.74
2019-05-02T10:43:51.965Z,48.64
2019-05-02T10:44:52.147Z,48.42
2019-05-02T10:45:52.857Z,47.49
2019-05-02T10:46:52.291Z,48.49
2019-05-02T10:47:49.530Z,47.40
2019-05-02T10:48:49.525Z,47.66
2019-05-02T10:49:49.512Z,52.64
2019-05-02T10:50:49.536Z,51.16
2019-05-02T10:51:51.844Z,50.63
2019-05-02T10:52:49.493Z,46.73
2019-05-02T10:53:52.627Z,46.60
2019-05-02T10:54:52.839Z,45.78
2019-05-02T10:55:49.486Z,47.26
2019-05-02T10:56:49.467Z,48.62
2019-05-02T10:57:49.467Z,48.82
2019-05-02T10:58:49.451Z,47.13
2019-05-02T10:59:49.458Z,48.15
2019-05-02T11:00:49.455Z,48.74
2019-05-02T11:01:49.460Z,47.92
2019-05-02T11:02:49.443Z,47.62
2019-05-02T11:03:51.558Z,46.85
2019-05-02T11:04:49.441Z,47.31
2019-05-02T11:05:49.411Z,46.19
2019-05-02T11:06:49.418Z,46.35
2019-05-02T11:07:49.403Z,45.26
2019-05-02T11:08:49.393Z,46.61
2019-05-02T11:09:49.386Z,46.47
2019-05-02T11:10:49.408Z,49.67
2019-05-02T11:11:49.407Z,48.22
2019-05-02T11:12:49.401Z,48.55
2019-05-02T11:13:55.388Z,47.62
2019-05-02T11:14:51.693Z,48.08
2019-05-02T11:15:49.362Z,47.88
2019-05-02T11:16:49.364Z,49.42
2019-05-02T11:17:49.350Z,51.35
2019-05-02T11:18:49.355Z,48.41
2019-05-02T11:19:49.333Z,54.75
2019-05-02T11:20:49.331Z,48.33
2019-05-02T11:21:56.422Z,46.43
2019-05-02T11:22:54.393Z,45.48
2019-05-02T11:23:52.440Z,45.01
2019-05-02T11:24:49.289Z,45.80
2019-05-02T11:25:49.290Z,45.74
2019-05-02T11:26:49.291Z,46.69
2019-05-02T11:27:49.277Z,46.66
2019-05-02T11:28:49.262Z,47.38
2019-05-02T11:29:49.266Z,46.66
2019-05-02T11:30:49.271Z,47.35
2019-05-02T11:31:49.295Z,47.56
2019-05-02T11:32:49.259Z,47.28
2019-05-02T11:33:49.254Z,46.90
2019-05-02T11:34:49.259Z,46.45
2019-05-02T11:35:51.116Z,45.72
2019-05-02T11:36:49.280Z,46.12
2019-05-02T11:37:49.235Z,46.91
2019-05-02T11:38:54.819Z,46.56
2019-05-02T11:39:57.776Z,47.78
2019-05-02T11:40:52.061Z,47.83
2019-05-02T11:41:49.241Z,47.00
2019-05-02T11:42:49.230Z,45.81
2019-05-02T11:43:49.233Z,46.58
2019-05-02T11:44:49.213Z,46.47
2019-05-02T11:45:49.228Z,47.70
2019-05-02T11:46:49.218Z,45.44
2019-05-02T11:47:49.225Z,46.29
2019-05-02T11:48:56.433Z,47.31
2019-05-02T11:49:53.990Z,46.51
2019-05-02T11:50:52.150Z,45.78
2019-05-02T11:51:52.595Z,45.62
2019-05-02T11:52:52.331Z,46.33
2019-05-02T11:53:49.166Z,46.65
2019-05-02T11:54:49.170Z,46.13
2019-05-02T11:55:49.143Z,46.63
2019-05-02T11:56:50.501Z,46.09
2019-05-02T11:57:49.152Z,45.21
2019-05-02T11:58:50.297Z,44.72
2019-05-02T11:59:51.953Z,46.18
2019-05-02T12:00:49.706Z,45.83
2019-05-02T12:01:57.624Z,46.12
2019-05-02T12:02:56.254Z,45.85
2019-05-02T12:03:52.224Z,45.94
2019-05-02T12:04:54.305Z,44.58
2019-05-02T12:05:52.438Z,46.27
2019-05-02T12:06:49.914Z,46.73
2019-05-02T12:07:52.569Z,46.02
2019-05-02T12:08:49.532Z,46.88
2019-05-02T12:09:55.521Z,46.29
2019-05-02T12:10:51.950Z,48.92
2019-05-02T12:11:55.019Z,49.08
2019-05-02T12:12:52.677Z,45.81
2019-05-02T12:13:52.682Z,46.51
2019-05-02T12:14:52.735Z,46.71
2019-05-02T12:15:49.044Z,48.05
2019-05-02T12:16:49.052Z,47.97
2019-05-02T12:17:49.053Z,47.90
2019-05-02T12:18:49.040Z,46.86
2019-05-02T12:19:49.029Z,46.03
2019-05-02T12:20:49.028Z,47.01
2019-05-02T12:21:49.034Z,47.90
2019-05-02T12:22:49.035Z,51.05
2019-05-02T12:23:49.012Z,47.99
2019-05-02T12:24:48.997Z,47.39
2019-05-02T12:25:48.998Z,49.82
2019-05-02T12:26:48.981Z,47.52
2019-05-02T12:27:48.986Z,47.85
2019-05-02T12:28:48.967Z,50.37
2019-05-02T12:29:50.169Z,47.46
2019-05-02T12:30:51.876Z,47.47
2019-05-02T12:31:52.664Z,45.99
2019-05-02T12:32:52.972Z,46.18
2019-05-02T12:33:48.935Z,46.68
2019-05-02T12:34:48.933Z,49.37
2019-05-02T12:35:48.916Z,46.91
2019-05-02T12:36:48.913Z,47.61
2019-05-02T12:37:52.347Z,47.87
2019-05-02T12:38:52.657Z,46.36
2019-05-02T12:39:48.892Z,45.80
2019-05-02T12:40:48.877Z,44.30
2019-05-02T12:41:49.239Z,45.83
2019-05-02T12:42:48.865Z,44.72
2019-05-02T12:43:48.866Z,44.53
2019-05-02T12:44:48.849Z,43.85
2019-05-02T12:45:48.842Z,44.08
2019-05-02T12:46:48.832Z,43.97
2019-05-02T12:47:48.828Z,44.47
2019-05-02T12:48:48.830Z,45.15
2019-05-02T12:49:48.813Z,46.47
2019-05-02T12:50:48.805Z,46.72
2019-05-02T12:51:48.791Z,46.14
2019-05-02T12:52:48.788Z,47.07
2019-05-02T12:53:48.799Z,48.13
2019-05-02T12:54:48.770Z,46.34